createdAt,value
2024-01-20T00:01:30.273Z,100818.20
2024-01-20T00:03:58.256Z,100824.20
2024-01-20T00:06:26.221Z,100820.40
2024-01-20T00:08:54.370Z,100821.20
2024-01-20T00:11:23.623Z,100822.80
2024-01-20T00:13:51.540Z,100825.20
2024-01-20T00:16:19.682Z,100824.80
2024-01-20T00:18:48.552Z,100828.60
2024-01-20T00:21:17.368Z,100835.80
2024-01-20T00:23:45.243Z,100836.00
2024-01-20T00:26:13.429Z,100844.60
2024-01-20T00:28:42.686Z,100845.40
2024-01-20T00:31:12.678Z,100846.80
2024-01-20T00:33:41.360Z,100852.80
2024-01-20T00:36:10.092Z,100850.80
2024-01-20T00:38:40.612Z,100845.00
2024-01-20T00:41:09.038Z,100853.20
2024-01-20T00:43:37.313Z,100853.60
2024-01-20T00:46:05.463Z,100857.20
2024-01-20T00:48:33.733Z,100856.80
2024-01-20T00:51:02.162Z,100851.80
2024-01-20T00:53:30.392Z,100850.80
2024-01-20T00:55:58.675Z,100858.60
2024-01-20T00:58:29.705Z,100861.00
2024-01-20T01:00:58.617Z,100871.00
2024-01-20T01:03:26.787Z,100876.80
2024-01-20T01:05:54.751Z,100888.80
2024-01-20T01:08:23.145Z,100894.20
2024-01-20T01:10:51.227Z,100905.00
2024-01-20T01:13:19.309Z,100915.40
2024-01-20T01:15:47.385Z,100918.40
2024-01-20T01:18:15.331Z,100921.20
2024-01-20T01:20:43.278Z,100922.00
2024-01-20T01:23:11.211Z,100918.80
2024-01-20T01:25:40.043Z,100921.20
2024-01-20T01:28:08.171Z,100930.40
2024-01-20T01:30:36.308Z,100941.00
2024-01-20T01:33:04.885Z,100947.80
2024-01-20T01:35:32.700Z,100956.40
2024-01-20T01:38:00.772Z,100962.40
2024-01-20T01:40:29.604Z,100968.80
2024-01-20T01:42:58.737Z,100971.80
2024-01-20T01:45:27.249Z,100979.80
2024-01-20T01:47:57.582Z,100986.60
2024-01-20T01:50:26.596Z,100991.20
2024-01-20T01:52:56.068Z,101001.60
2024-01-20T01:55:25.877Z,101006.60
2024-01-20T01:57:55.283Z,101006.60
2024-01-20T02:00:23.451Z,101004.00
2024-01-20T02:02:52.963Z,101002.60
2024-01-20T02:05:21.061Z,101008.20
2024-01-20T02:07:50.821Z,101018.80
2024-01-20T02:10:19.353Z,101027.20
2024-01-20T02:12:47.532Z,101032.60
2024-01-20T02:15:18.775Z,101036.80
2024-01-20T02:17:51.478Z,101047.00
2024-01-20T02:20:19.836Z,101057.00
2024-01-20T02:22:48.643Z,101061.00
2024-01-20T02:25:16.995Z,101072.00
2024-01-20T02:27:44.977Z,101072.40
2024-01-20T02:30:13.177Z,101068.40
2024-01-20T02:32:41.134Z,101070.00
2024-01-20T02:35:10.782Z,101074.00
2024-01-20T02:37:38.663Z,101078.20
2024-01-20T02:40:08.775Z,101078.20
2024-01-20T02:42:36.735Z,101076.60
2024-01-20T02:45:06.083Z,101076.40
2024-01-20T02:47:34.137Z,101085.40
2024-01-20T02:50:02.703Z,101079.60
2024-01-20T02:52:30.932Z,101086.60
2024-01-20T02:54:59.087Z,101097.40
2024-01-20T02:57:27.175Z,101102.20
2024-01-20T02:59:55.184Z,101112.80
2024-01-20T03:02:25.024Z,101115.20
2024-01-20T03:04:53.011Z,101116.80
2024-01-20T03:07:22.038Z,101123.00
2024-01-20T03:09:49.936Z,101123.40
2024-01-20T03:12:17.940Z,101122.60
2024-01-20T03:14:45.789Z,101129.20
2024-01-20T03:17:13.674Z,101131.40
2024-01-20T03:19:41.605Z,101135.40
2024-01-20T03:22:09.423Z,101139.80
2024-01-20T03:24:37.622Z,101141.40
2024-01-20T03:27:06.132Z,101152.40
2024-01-20T03:29:34.080Z,101157.80
2024-01-20T03:32:02.300Z,101166.60
2024-01-20T03:34:30.258Z,101172.20
2024-01-20T03:36:58.789Z,101184.00
2024-01-20T03:39:26.634Z,101194.20
2024-01-20T03:41:54.596Z,101198.20
2024-01-20T03:44:22.533Z,101201.60
2024-01-20T03:46:50.500Z,101198.80
2024-01-20T03:49:19.699Z,101201.60
2024-01-20T03:51:47.577Z,101199.20
2024-01-20T03:54:17.986Z,101205.80
2024-01-20T03:56:46.332Z,101205.40
2024-01-20T03:59:14.214Z,101206.80
2024-01-20T04:01:42.093Z,101207.20
2024-01-20T04:04:10.631Z,101208.60
2024-01-20T04:06:40.075Z,101222.60
2024-01-20T04:09:07.977Z,101223.40
2024-01-20T04:11:36.050Z,101230.80
2024-01-20T04:14:04.634Z,101240.00
2024-01-20T04:16:34.425Z,101252.60
2024-01-20T04:19:03.879Z,101251.60
2024-01-20T04:21:32.023Z,101258.20
2024-01-20T04:24:00.613Z,101259.60
2024-01-20T04:26:30.981Z,101270.20
2024-01-20T04:28:59.864Z,101269.60
2024-01-20T04:31:28.159Z,101274.40
2024-01-20T04:33:57.466Z,101283.00
2024-01-20T04:36:25.720Z,101292.60
2024-01-20T04:38:53.806Z,101304.80
2024-01-20T04:41:22.080Z,101315.00
2024-01-20T04:43:49.910Z,101324.40
2024-01-20T04:46:18.035Z,101330.80
2024-01-20T04:48:46.637Z,101335.60
2024-01-20T04:51:16.686Z,101340.60
2024-01-20T04:53:47.774Z,101342.60
2024-01-20T04:56:42.965Z,101350.20
2024-01-20T04:59:11.383Z,101352.20
2024-01-20T05:01:40.777Z,101351.80
2024-01-20T05:04:08.979Z,101349.60
2024-01-20T05:06:37.263Z,101351.80
2024-01-20T05:09:05.895Z,101362.60
2024-01-20T05:11:37.757Z,101370.60
2024-01-20T05:14:06.161Z,101376.60
2024-01-20T05:16:34.053Z,101381.00
2024-01-20T05:19:03.183Z,101391.00
2024-01-20T05:21:31.490Z,101401.80
2024-01-20T05:23:59.466Z,101403.00
2024-01-20T05:26:27.786Z,101404.20
2024-01-20T05:28:57.151Z,101413.60
2024-01-20T05:31:25.975Z,101417.60
2024-01-20T05:33:54.065Z,101417.00
2024-01-20T05:36:22.795Z,101433.20
2024-01-20T05:38:53.252Z,101431.40
2024-01-20T05:41:22.200Z,101431.20
2024-01-20T05:43:50.112Z,101436.40
2024-01-20T05:46:21.293Z,101438.40
2024-01-20T05:48:51.300Z,101450.40
2024-01-20T05:51:20.608Z,101453.80
2024-01-20T05:53:48.705Z,101455.80
2024-01-20T05:56:17.667Z,101457.20
2024-01-20T05:58:45.787Z,101457.00
2024-01-20T06:01:15.379Z,101460.40
2024-01-20T06:03:43.755Z,101461.20
2024-01-20T06:06:13.776Z,101477.40
2024-01-20T06:08:41.848Z,101487.20
2024-01-20T06:11:11.210Z,101496.40
2024-01-20T06:13:39.481Z,101510.20
2024-01-20T06:16:08.155Z,101513.60
2024-01-20T06:18:36.186Z,101514.80
2024-01-20T06:21:05.506Z,101515.80
2024-01-20T06:23:34.470Z,101517.40
2024-01-20T06:26:02.458Z,101519.20
2024-01-20T06:28:30.333Z,101529.80
2024-01-20T06:30:58.434Z,101531.00
2024-01-20T06:33:26.581Z,101530.00
2024-01-20T06:35:55.080Z,101536.00
2024-01-20T06:38:22.970Z,101538.80
2024-01-20T06:40:51.128Z,101544.60
2024-01-20T06:43:19.117Z,101543.40
2024-01-20T06:45:47.618Z,101546.80
2024-01-20T06:48:17.788Z,101550.60
2024-01-20T06:50:45.848Z,101546.80
2024-01-20T06:53:13.838Z,101553.40
2024-01-20T06:55:42.665Z,101565.20
2024-01-20T06:58:11.099Z,101574.60
2024-01-20T07:00:39.032Z,101595.20
2024-01-20T07:03:07.720Z,101601.80
2024-01-20T07:05:35.654Z,101607.80
2024-01-20T07:08:05.774Z,101610.60
2024-01-20T07:10:33.765Z,101615.80
2024-01-20T07:13:02.874Z,101628.60
2024-01-20T07:15:31.576Z,101632.80
2024-01-20T07:18:00.431Z,101635.60
2024-01-20T07:20:28.449Z,101631.40
2024-01-20T07:22:56.291Z,101635.40
2024-01-20T07:25:24.254Z,101638.40
2024-01-20T07:27:52.713Z,101640.20
2024-01-20T07:30:21.395Z,101638.40
2024-01-20T07:32:49.884Z,101636.60
2024-01-20T07:35:17.725Z,101631.40
2024-01-20T07:37:47.520Z,101635.40
2024-01-20T07:40:18.267Z,101644.00
2024-01-20T07:42:46.364Z,101656.80
2024-01-20T07:45:14.308Z,101666.60
2024-01-20T07:47:42.581Z,101677.00
2024-01-20T07:50:10.608Z,101687.20
2024-01-20T07:52:40.947Z,101686.60
2024-01-20T07:55:11.458Z,101685.80
2024-01-20T07:57:40.388Z,101688.80
2024-01-20T08:00:16.558Z,101693.00
2024-01-20T08:02:44.660Z,101703.40
2024-01-20T08:05:12.675Z,101702.20
2024-01-20T08:07:40.604Z,101711.20
2024-01-20T08:10:09.176Z,101721.80
2024-01-20T08:12:37.205Z,101720.60
2024-01-20T08:15:06.358Z,101728.40
2024-01-20T08:17:34.230Z,101736.60
2024-01-20T08:20:02.280Z,101742.00
2024-01-20T08:22:30.397Z,101741.00
2024-01-20T08:25:02.187Z,101737.80
2024-01-20T08:27:30.261Z,101744.00
2024-01-20T08:29:59.303Z,101741.40
2024-01-20T08:32:27.618Z,101741.80
2024-01-20T08:34:59.039Z,101746.60
2024-01-20T08:37:26.907Z,101749.80
2024-01-20T08:39:54.829Z,101759.40
2024-01-20T08:42:22.855Z,101755.80
2024-01-20T08:44:50.734Z,101761.80
2024-01-20T08:47:18.612Z,101766.80
2024-01-20T08:49:53.388Z,101774.20
2024-01-20T08:52:21.961Z,101774.60
2024-01-20T08:54:49.851Z,101777.80
2024-01-20T08:57:17.752Z,101783.40
2024-01-20T08:59:45.952Z,101792.20
2024-01-20T09:02:17.345Z,101812.40
2024-01-20T09:04:47.663Z,101817.40
2024-01-20T09:07:17.835Z,101824.00
2024-01-20T09:09:45.796Z,101830.00
2024-01-20T09:12:13.906Z,101830.40
2024-01-20T09:14:41.744Z,101840.20
2024-01-20T09:17:09.604Z,101847.60
2024-01-20T09:19:37.563Z,101850.00
2024-01-20T09:22:05.542Z,101851.80
2024-01-20T09:24:33.909Z,101852.20
2024-01-20T09:27:02.056Z,101868.40
2024-01-20T09:29:32.079Z,101866.80
2024-01-20T09:32:05.409Z,101860.20
2024-01-20T09:34:33.304Z,101862.40
2024-01-20T09:37:01.206Z,101872.40
2024-01-20T09:39:30.448Z,101871.40
2024-01-20T09:42:00.421Z,101856.80
2024-01-20T09:44:28.725Z,101848.00
2024-01-20T09:46:56.857Z,101852.60
2024-01-20T09:49:25.602Z,101857.60
2024-01-20T09:52:01.658Z,101865.20
2024-01-20T09:54:29.785Z,101866.40
2024-01-20T09:56:57.673Z,101871.00
2024-01-20T09:59:29.693Z,101865.60
2024-01-20T10:01:58.554Z,101856.20
2024-01-20T10:04:29.371Z,101856.60
2024-01-20T10:06:57.270Z,101862.60
2024-01-20T10:09:26.797Z,101862.80
2024-01-20T10:11:55.056Z,101863.00
2024-01-20T10:14:23.203Z,101871.00
2024-01-20T10:16:51.390Z,101874.20
2024-01-20T10:19:19.515Z,101881.20
2024-01-20T10:21:51.102Z,101888.00
2024-01-20T10:24:24.578Z,101896.80
2024-01-20T10:26:53.898Z,101898.60
2024-01-20T10:29:21.718Z,101897.80
2024-01-20T10:31:49.673Z,101904.60
2024-01-20T10:34:17.982Z,101904.80
2024-01-20T10:36:48.073Z,101896.40
2024-01-20T10:39:21.553Z,101893.00
2024-01-20T10:41:54.829Z,101896.60
2024-01-20T10:44:31.693Z,101891.20
2024-01-20T10:47:10.101Z,101897.20
2024-01-20T10:49:42.006Z,101896.80
2024-01-20T10:52:11.044Z,101901.40
2024-01-20T10:54:42.181Z,101909.40
2024-01-20T10:57:13.753Z,101917.20
2024-01-20T10:59:45.393Z,101931.00
2024-01-20T11:02:15.030Z,101923.60
2024-01-20T11:04:46.246Z,101928.00
2024-01-20T11:07:15.121Z,101925.40
2024-01-20T11:09:43.394Z,101924.00
2024-01-20T11:12:13.619Z,101927.40
2024-01-20T11:14:52.499Z,101929.60
2024-01-20T11:17:23.768Z,101933.60
2024-01-20T11:19:52.558Z,101937.40
2024-01-20T11:22:41.593Z,101939.40
2024-01-20T11:25:11.419Z,101936.60
2024-01-20T11:27:56.643Z,101928.20
2024-01-20T11:30:36.373Z,101923.20
2024-01-20T11:33:06.271Z,101920.40
2024-01-20T11:35:38.942Z,101920.40
2024-01-20T11:38:09.252Z,101914.80
2024-01-20T11:40:37.119Z,101920.00
2024-01-20T11:43:11.384Z,101920.60
2024-01-20T11:45:41.636Z,101917.80
2024-01-20T11:48:14.014Z,101927.40
2024-01-20T11:50:43.695Z,101928.20
2024-01-20T11:53:12.926Z,101931.80
2024-01-20T11:55:41.045Z,101928.20
2024-01-20T11:58:08.963Z,101930.80
2024-01-20T12:00:36.874Z,101922.20
2024-01-20T12:03:05.171Z,101908.60
2024-01-20T12:05:34.926Z,101910.20
2024-01-20T12:08:05.415Z,101905.40
2024-01-20T12:10:36.807Z,101903.40
2024-01-20T12:13:05.757Z,101895.80
2024-01-20T12:15:38.027Z,101894.20
2024-01-20T12:18:07.536Z,101897.20
2024-01-20T12:20:38.447Z,101907.80
2024-01-20T12:23:08.936Z,101910.00
2024-01-20T12:25:39.948Z,101915.80
2024-01-20T12:28:08.051Z,101918.20
2024-01-20T12:30:36.231Z,101912.00
2024-01-20T12:33:05.538Z,101911.00
2024-01-20T12:35:33.755Z,101909.00
2024-01-20T12:38:01.646Z,101909.80
2024-01-20T12:40:30.785Z,101917.60
2024-01-20T12:42:58.971Z,101920.20
2024-01-20T12:45:28.243Z,101927.40
2024-01-20T12:47:56.210Z,101926.00
2024-01-20T12:50:24.010Z,101928.60
2024-01-20T12:52:52.659Z,101931.00
2024-01-20T12:55:20.869Z,101927.80
2024-01-20T12:57:48.938Z,101933.00
2024-01-20T13:00:17.971Z,101931.80
2024-01-20T13:02:45.942Z,101933.80
2024-01-20T13:05:14.025Z,101934.60
2024-01-20T13:07:41.926Z,101927.40
2024-01-20T13:10:10.628Z,101928.60
2024-01-20T13:12:38.632Z,101924.40
2024-01-20T13:15:08.773Z,101916.40
2024-01-20T13:17:36.994Z,101917.20
2024-01-20T13:20:05.329Z,101915.40
2024-01-20T13:22:33.254Z,101908.00
2024-01-20T13:25:01.130Z,101912.40
2024-01-20T13:27:29.049Z,101913.60
2024-01-20T13:29:57.003Z,101923.60
2024-01-20T13:32:25.190Z,101932.40
2024-01-20T13:34:53.090Z,101927.00
2024-01-20T13:37:23.014Z,101933.20
2024-01-20T13:39:52.714Z,101934.80
2024-01-20T13:42:20.575Z,101923.40
2024-01-20T13:44:48.470Z,101931.80
2024-01-20T13:47:16.392Z,101937.60
2024-01-20T13:49:46.193Z,101932.60
2024-01-20T13:52:14.313Z,101930.80
2024-01-20T13:54:43.714Z,101931.40
2024-01-20T13:57:11.811Z,101932.20
2024-01-20T13:59:39.737Z,101931.40
2024-01-20T14:02:07.762Z,101930.80
2024-01-20T14:04:36.730Z,101932.40
2024-01-20T14:07:06.333Z,101932.60
2024-01-20T14:09:34.500Z,101939.20
2024-01-20T14:12:02.441Z,101937.80
2024-01-20T14:14:30.396Z,101938.20
2024-01-20T14:17:01.726Z,101935.00
2024-01-20T14:19:30.291Z,101937.20
2024-01-20T14:21:58.490Z,101940.20
2024-01-20T14:24:28.325Z,101937.80
2024-01-20T14:26:56.988Z,101930.20
2024-01-20T14:29:25.001Z,101938.00
2024-01-20T14:31:54.120Z,101930.40
2024-01-20T14:34:23.060Z,101934.80
2024-01-20T14:36:54.798Z,101933.80
2024-01-20T14:39:24.758Z,101940.00
2024-01-20T14:41:54.633Z,101934.80
2024-01-20T14:44:24.420Z,101933.20
2024-01-20T14:46:52.512Z,101935.40
2024-01-20T14:49:20.785Z,101931.00
2024-01-20T14:51:51.940Z,101934.80
2024-01-20T14:54:19.923Z,101934.00
2024-01-20T14:56:47.867Z,101942.60
2024-01-20T14:59:15.869Z,101932.60
2024-01-20T15:01:48.526Z,101937.20
2024-01-20T15:04:16.879Z,101932.40
2024-01-20T15:06:45.035Z,101935.80
2024-01-20T15:09:13.239Z,101935.40
2024-01-20T15:11:41.302Z,101938.80
2024-01-20T15:14:09.244Z,101937.60
2024-01-20T15:16:37.694Z,101936.20
2024-01-20T15:19:07.164Z,101935.80
2024-01-20T15:21:36.292Z,101933.20
2024-01-20T15:24:04.856Z,101935.00
2024-01-20T15:26:33.282Z,101934.60
2024-01-20T15:29:01.120Z,101929.40
2024-01-20T15:31:29.006Z,101930.80
2024-01-20T15:33:58.643Z,101925.00
2024-01-20T15:36:26.731Z,101925.40
2024-01-20T15:38:54.679Z,101922.20
2024-01-20T15:41:24.026Z,101929.20
2024-01-20T15:43:51.965Z,101927.20
2024-01-20T15:46:20.381Z,101922.20
2024-01-20T15:48:49.096Z,101914.60
2024-01-20T15:51:17.805Z,101909.80
2024-01-20T15:53:46.938Z,101906.00
2024-01-20T15:56:15.363Z,101902.40
2024-01-20T15:58:43.507Z,101909.00
2024-01-20T16:01:11.886Z,101904.20
2024-01-20T16:03:39.949Z,101908.20
2024-01-20T16:06:10.056Z,101895.40
2024-01-20T16:08:38.328Z,101900.40
2024-01-20T16:11:06.553Z,101902.40
2024-01-20T16:13:35.102Z,101909.20
2024-01-20T16:16:04.284Z,101902.00
2024-01-20T16:18:32.799Z,101902.60
2024-01-20T16:21:03.986Z,101898.60
2024-01-20T16:23:32.324Z,101906.40
2024-01-20T16:26:00.216Z,101907.40
2024-01-20T16:28:32.508Z,101908.20
2024-01-20T16:31:01.990Z,101906.60
2024-01-20T16:33:30.053Z,101904.60
2024-01-20T16:35:58.068Z,101903.60
2024-01-20T16:38:27.968Z,101909.20
2024-01-20T16:40:59.424Z,101910.40
2024-01-20T16:43:28.444Z,101908.20
2024-01-20T16:45:57.053Z,101905.60
2024-01-20T16:48:25.152Z,101909.60
2024-01-20T16:50:53.581Z,101904.00
2024-01-20T16:53:23.620Z,101896.40
2024-01-20T16:55:51.481Z,101900.00
2024-01-20T16:58:21.946Z,101896.20
2024-01-20T17:00:50.151Z,101895.40
2024-01-20T17:03:19.223Z,101882.00
2024-01-20T17:05:49.808Z,101876.20
2024-01-20T17:08:19.890Z,101873.40
2024-01-20T17:10:47.884Z,101880.00
2024-01-20T17:13:16.345Z,101881.40
2024-01-20T17:15:50.697Z,101880.20
2024-01-20T17:18:18.718Z,101876.20
2024-01-20T17:20:52.622Z,101877.60
2024-01-20T17:23:21.659Z,101881.00
2024-01-20T17:25:49.518Z,101886.60
2024-01-20T17:28:19.118Z,101878.80
2024-01-20T17:30:52.635Z,101870.20
2024-01-20T17:33:21.702Z,101873.80
2024-01-20T17:35:54.428Z,101875.60
2024-01-20T17:38:26.102Z,101874.00
2024-01-20T17:40:53.978Z,101875.60
2024-01-20T17:43:21.940Z,101879.60
2024-01-20T17:45:58.460Z,101883.40
2024-01-20T17:48:26.843Z,101882.80
2024-01-20T17:50:54.750Z,101880.00
2024-01-20T17:53:22.613Z,101881.20
2024-01-20T17:55:50.584Z,101879.40
2024-01-20T17:58:20.315Z,101882.60
2024-01-20T18:00:50.722Z,101884.40
2024-01-20T18:03:19.848Z,101884.00
2024-01-20T18:05:48.302Z,101878.80
2024-01-20T18:08:16.478Z,101874.20
2024-01-20T18:10:44.346Z,101880.80
2024-01-20T18:13:12.256Z,101881.20
2024-01-20T18:15:40.398Z,101886.60
2024-01-20T18:18:08.876Z,101898.60
2024-01-20T18:20:37.037Z,101898.60
2024-01-20T18:23:05.514Z,101895.60
2024-01-20T18:25:34.486Z,101889.20
2024-01-20T18:28:05.885Z,101894.00
2024-01-20T18:30:38.902Z,101901.00
2024-01-20T18:33:08.622Z,101902.80
2024-01-20T18:35:36.856Z,101898.00
2024-01-20T18:38:09.049Z,101890.60
2024-01-20T18:40:37.029Z,101885.60
2024-01-20T18:43:06.141Z,101880.20
2024-01-20T18:45:35.080Z,101879.80
2024-01-20T18:48:04.003Z,101878.80
2024-01-20T18:50:35.228Z,101886.40
2024-01-20T18:53:03.579Z,101877.40
2024-01-20T18:55:32.870Z,101878.80
2024-01-20T18:58:00.794Z,101872.60
2024-01-20T19:00:28.743Z,101867.80
2024-01-20T19:02:57.834Z,101868.00
2024-01-20T19:05:27.178Z,101870.60
2024-01-20T19:07:55.159Z,101880.40
2024-01-20T19:10:23.005Z,101879.60
2024-01-20T19:12:51.958Z,101878.00
2024-01-20T19:15:20.917Z,101875.80
2024-01-20T19:17:51.223Z,101876.40
2024-01-20T19:20:23.990Z,101867.00
2024-01-20T19:22:51.977Z,101867.80
2024-01-20T19:25:19.773Z,101862.40
2024-01-20T19:27:48.455Z,101856.80
2024-01-20T19:30:17.108Z,101862.60
2024-01-20T19:32:46.369Z,101863.40
2024-01-20T19:35:14.746Z,101857.00
2024-01-20T19:37:42.694Z,101860.20
2024-01-20T19:40:14.309Z,101859.60
2024-01-20T19:42:43.536Z,101853.60
2024-01-20T19:45:12.501Z,101853.60
2024-01-20T19:47:40.598Z,101849.20
2024-01-20T19:50:09.182Z,101842.40
2024-01-20T19:52:39.595Z,101840.60
2024-01-20T19:55:09.414Z,101832.60
2024-01-20T19:57:37.810Z,101826.00
2024-01-20T20:00:07.343Z,101819.20
2024-01-20T20:02:35.395Z,101811.40
2024-01-20T20:05:05.285Z,101808.40
2024-01-20T20:07:34.276Z,101799.80
2024-01-20T20:10:03.515Z,101799.40
2024-01-20T20:12:32.030Z,101788.80
2024-01-20T20:15:03.958Z,101784.00
2024-01-20T20:17:34.267Z,101784.00
2024-01-20T20:20:02.695Z,101784.20
2024-01-20T20:22:32.422Z,101785.00
2024-01-20T20:25:00.390Z,101777.20
2024-01-20T20:27:28.308Z,101767.20
2024-01-20T20:29:57.398Z,101759.60
2024-01-20T20:32:26.246Z,101754.20
2024-01-20T20:34:58.995Z,101742.80
2024-01-20T20:37:27.059Z,101750.20
2024-01-20T20:39:55.427Z,101752.00
2024-01-20T20:42:24.603Z,101740.60
2024-01-20T20:44:53.976Z,101729.00
2024-01-20T20:47:21.849Z,101726.00
2024-01-20T20:49:51.724Z,101725.20
2024-01-20T20:52:20.098Z,101722.80
2024-01-20T20:54:48.097Z,101711.60
2024-01-20T20:57:16.372Z,101707.20
2024-01-20T20:59:45.908Z,101698.00
2024-01-20T21:02:14.695Z,101695.00
2024-01-20T21:04:42.927Z,101689.20
2024-01-20T21:07:11.679Z,101682.60
2024-01-20T21:09:43.188Z,101672.60
2024-01-20T21:12:22.892Z,101672.20
2024-01-20T21:14:50.994Z,101671.20
2024-01-20T21:17:19.353Z,101677.60
2024-01-20T21:19:47.495Z,101673.60
2024-01-20T21:22:15.466Z,101674.60
2024-01-20T21:24:43.402Z,101678.00
2024-01-20T21:27:12.187Z,101673.60
2024-01-20T21:29:40.458Z,101677.40
2024-01-20T21:32:08.302Z,101672.40
2024-01-20T21:34:36.304Z,101662.60
2024-01-20T21:37:04.796Z,101661.00
2024-01-20T21:39:34.525Z,101655.20
2024-01-20T21:42:03.233Z,101665.40
2024-01-20T21:44:32.057Z,101669.00
2024-01-20T21:46:59.928Z,101658.00
2024-01-20T21:49:28.028Z,101653.20
2024-01-20T21:51:58.896Z,101649.00
2024-01-20T21:54:29.530Z,101642.00
2024-01-20T21:56:57.588Z,101640.40
2024-01-20T21:59:25.827Z,101644.20
2024-01-20T22:01:54.335Z,101637.80
2024-01-20T22:04:22.444Z,101633.60
2024-01-20T22:06:51.328Z,101640.20
2024-01-20T22:09:22.365Z,101643.40
2024-01-20T22:11:51.520Z,101643.80
2024-01-20T22:14:19.537Z,101634.60
2024-01-20T22:16:49.337Z,101628.80
2024-01-20T22:19:17.259Z,101628.00
2024-01-20T22:21:46.369Z,101631.00
2024-01-20T22:24:14.423Z,101633.40
2024-01-20T22:26:42.647Z,101639.40
2024-01-20T22:29:19.225Z,101637.20
2024-01-20T22:31:56.087Z,101631.40
2024-01-20T22:34:31.999Z,101627.40
2024-01-20T22:37:01.293Z,101626.00
2024-01-20T22:39:29.418Z,101620.40
2024-01-20T22:41:57.462Z,101619.80
2024-01-20T22:44:25.697Z,101621.80
2024-01-20T22:46:54.615Z,101624.00
2024-01-20T22:49:23.055Z,101621.80
2024-01-20T22:51:51.570Z,101621.80
2024-01-20T22:54:23.607Z,101622.60
2024-01-20T22:56:52.829Z,101620.60
2024-01-20T22:59:20.872Z,101610.40
2024-01-20T23:01:48.720Z,101603.00
2024-01-20T23:04:16.799Z,101602.00
2024-01-20T23:06:46.815Z,101597.60
2024-01-20T23:09:14.709Z,101587.60
2024-01-20T23:11:42.694Z,101592.40
2024-01-20T23:14:11.910Z,101581.00
2024-01-20T23:16:42.238Z,101574.40
2024-01-20T23:19:10.579Z,101566.40
2024-01-20T23:21:38.926Z,101568.80
2024-01-20T23:24:06.806Z,101565.20
2024-01-20T23:26:36.268Z,101558.40
2024-01-20T23:29:04.433Z,101554.20
2024-01-20T23:31:32.413Z,101556.20
2024-01-20T23:34:00.633Z,101544.40
2024-01-20T23:36:28.666Z,101550.00
2024-01-20T23:38:57.284Z,101553.00
2024-01-20T23:41:25.466Z,101557.80
2024-01-20T23:43:53.455Z,101561.80
2024-01-20T23:46:21.311Z,101563.40
2024-01-20T23:48:49.204Z,101574.00
2024-01-20T23:51:17.476Z,101574.80
2024-01-20T23:53:45.331Z,101579.00
2024-01-20T23:56:13.560Z,101573.40
2024-01-20T23:58:42.148Z,101563.40
